sensor_id;sensor_type;location;lat;lon;timestamp;temperature;humidity
24522;DHT22;12680;57.804;12.190;2023-06-22T00:01:19;19.20;99.90
24522;DHT22;12680;57.804;12.190;2023-06-22T00:03:47;16.90;99.90
24522;DHT22;12680;57.804;12.190;2023-06-22T00:06:14;18.90;99.90
24522;DHT22;12680;57.804;12.190;2023-06-22T00:08:41;16.90;99.90
24522;DHT22;12680;57.804;12.190;2023-06-22T00:11:08;18.60;99.90
24522;DHT22;12680;57.804;12.190;2023-06-22T00:13:35;16.80;99.90
24522;DHT22;12680;57.804;12.190;2023-06-22T00:16:01;16.80;99.90
24522;DHT22;12680;57.804;12.190;2023-06-22T00:18:28;16.80;99.90
24522;DHT22;12680;57.804;12.190;2023-06-22T00:20:57;16.80;99.90
24522;DHT22;12680;57.804;12.190;2023-06-22T00:23:25;16.80;99.90
24522;DHT22;12680;57.804;12.190;2023-06-22T00:25:52;17.50;99.90
24522;DHT22;12680;57.804;12.190;2023-06-22T00:28:19;16.80;99.90
24522;DHT22;12680;57.804;12.190;2023-06-22T00:30:46;18.40;99.90
24522;DHT22;12680;57.804;12.190;2023-06-22T00:33:14;16.90;99.90
24522;DHT22;12680;57.804;12.190;2023-06-22T00:35:42;19.00;99.90
24522;DHT22;12680;57.804;12.190;2023-06-22T00:38:09;16.70;99.90
24522;DHT22;12680;57.804;12.190;2023-06-22T00:40:36;16.70;99.90
24522;DHT22;12680;57.804;12.190;2023-06-22T00:43:04;16.70;99.90
24522;DHT22;12680;57.804;12.190;2023-06-22T00:45:31;18.00;99.90
24522;DHT22;12680;57.804;12.190;2023-06-22T00:47:58;16.90;99.90
24522;DHT22;12680;57.804;12.190;2023-06-22T00:50:30;17.40;99.90
24522;DHT22;12680;57.804;12.190;2023-06-22T00:53:05;16.50;99.90
24522;DHT22;12680;57.804;12.190;2023-06-22T00:55:42;16.50;99.90
24522;DHT22;12680;57.804;12.190;2023-06-22T00:58:19;16.50;99.90
24522;DHT22;12680;57.804;12.190;2023-06-22T01:00:48;16.50;99.90
24522;DHT22;12680;57.804;12.190;2023-06-22T01:03:15;17.30;99.90
24522;DHT22;12680;57.804;12.190;2023-06-22T01:05:44;17.90;99.90
24522;DHT22;12680;57.804;12.190;2023-06-22T01:11:29;16.50;99.90
24522;DHT22;12680;57.804;12.190;2023-06-22T01:14:08;16.40;99.90
24522;DHT22;12680;57.804;12.190;2023-06-22T01:16:41;17.10;99.90
24522;DHT22;12680;57.804;12.190;2023-06-22T01:22:17;16.40;99.90
24522;DHT22;12680;57.804;12.190;2023-06-22T01:25:09;18.10;99.90
24522;DHT22;12680;57.804;12.190;2023-06-22T01:30:16;16.40;99.90
24522;DHT22;12680;57.804;12.190;2023-06-22T01:32:45;16.90;99.90
24522;DHT22;12680;57.804;12.190;2023-06-22T01:35:12;18.10;99.90
24522;DHT22;12680;57.804;12.190;2023-06-22T01:37:39;16.40;99.90
24522;DHT22;12680;57.804;12.190;2023-06-22T01:40:07;16.40;99.90
24522;DHT22;12680;57.804;12.190;2023-06-22T01:42:36;16.40;99.90
24522;DHT22;12680;57.804;12.190;2023-06-22T01:45:04;16.50;99.90
24522;DHT22;12680;57.804;12.190;2023-06-22T01:47:32;16.40;99.90
24522;DHT22;12680;57.804;12.190;2023-06-22T01:49:59;16.40;99.90
24522;DHT22;12680;57.804;12.190;2023-06-22T01:52:26;16.50;99.90
24522;DHT22;12680;57.804;12.190;2023-06-22T01:54:52;16.50;99.90
24522;DHT22;12680;57.804;12.190;2023-06-22T01:57:20;18.80;99.90
24522;DHT22;12680;57.804;12.190;2023-06-22T02:00:05;16.50;99.90
24522;DHT22;12680;57.804;12.190;2023-06-22T02:02:38;16.50;99.90
24522;DHT22;12680;57.804;12.190;2023-06-22T02:05:07;16.40;99.90
24522;DHT22;12680;57.804;12.190;2023-06-22T02:07:46;16.40;99.90
24522;DHT22;12680;57.804;12.190;2023-06-22T02:10:15;16.40;99.90
24522;DHT22;12680;57.804;12.190;2023-06-22T02:12:43;16.40;99.90
24522;DHT22;12680;57.804;12.190;2023-06-22T02:15:11;16.40;99.90
24522;DHT22;12680;57.804;12.190;2023-06-22T02:17:39;16.40;99.90
24522;DHT22;12680;57.804;12.190;2023-06-22T02:20:13;16.50;99.90
24522;DHT22;12680;57.804;12.190;2023-06-22T02:22:40;16.50;99.90
24522;DHT22;12680;57.804;12.190;2023-06-22T02:25:08;18.00;99.90
24522;DHT22;12680;57.804;12.190;2023-06-22T02:27:34;17.10;99.90
24522;DHT22;12680;57.804;12.190;2023-06-22T02:30:01;16.50;99.90
24522;DHT22;12680;57.804;12.190;2023-06-22T02:32:28;16.50;99.90
24522;DHT22;12680;57.804;12.190;2023-06-22T02:34:55;16.50;99.90
24522;DHT22;12680;57.804;12.190;2023-06-22T02:37:22;17.40;99.90
24522;DHT22;12680;57.804;12.190;2023-06-22T02:39:51;16.50;99.90
24522;DHT22;12680;57.804;12.190;2023-06-22T02:42:18;16.50;99.90
24522;DHT22;12680;57.804;12.190;2023-06-22T02:44:47;16.50;99.90
24522;DHT22;12680;57.804;12.190;2023-06-22T02:47:14;16.70;99.90
24522;DHT22;12680;57.804;12.190;2023-06-22T02:49:41;16.50;99.90
24522;DHT22;12680;57.804;12.190;2023-06-22T02:52:08;19.10;99.90
24522;DHT22;12680;57.804;12.190;2023-06-22T02:54:35;16.60;99.90
24522;DHT22;12680;57.804;12.190;2023-06-22T02:57:02;17.80;99.90
24522;DHT22;12680;57.804;12.190;2023-06-22T02:59:29;16.60;99.90
24522;DHT22;12680;57.804;12.190;2023-06-22T03:01:58;16.50;99.90
24522;DHT22;12680;57.804;12.190;2023-06-22T03:04:26;19.20;99.90
24522;DHT22;12680;57.804;12.190;2023-06-22T03:06:53;16.50;99.90
24522;DHT22;12680;57.804;12.190;2023-06-22T03:09:20;16.60;99.90
24522;DHT22;12680;57.804;12.190;2023-06-22T03:11:47;17.80;99.90
24522;DHT22;12680;57.804;12.190;2023-06-22T03:14:14;16.60;99.90
24522;DHT22;12680;57.804;12.190;2023-06-22T03:16:40;16.60;99.90
24522;DHT22;12680;57.804;12.190;2023-06-22T03:19:07;16.60;99.90
24522;DHT22;12680;57.804;12.190;2023-06-22T03:21:34;16.60;99.90
24522;DHT22;12680;57.804;12.190;2023-06-22T03:24:01;18.30;99.90
24522;DHT22;12680;57.804;12.190;2023-06-22T03:26:28;17.90;99.90
24522;DHT22;12680;57.804;12.190;2023-06-22T03:28:54;16.70;99.90
24522;DHT22;12680;57.804;12.190;2023-06-22T03:31:22;19.10;99.90
24522;DHT22;12680;57.804;12.190;2023-06-22T03:33:50;16.80;99.90
24522;DHT22;12680;57.804;12.190;2023-06-22T03:36:17;17.90;99.90
24522;DHT22;12680;57.804;12.190;2023-06-22T03:38:46;16.80;99.90
24522;DHT22;12680;57.804;12.190;2023-06-22T03:41:13;17.20;99.90
24522;DHT22;12680;57.804;12.190;2023-06-22T03:43:40;16.80;99.90
24522;DHT22;12680;57.804;12.190;2023-06-22T03:46:07;16.80;99.90
24522;DHT22;12680;57.804;12.190;2023-06-22T03:48:34;16.80;99.90
24522;DHT22;12680;57.804;12.190;2023-06-22T03:51:01;16.80;99.90
24522;DHT22;12680;57.804;12.190;2023-06-22T03:53:28;19.30;99.90
24522;DHT22;12680;57.804;12.190;2023-06-22T03:55:55;16.80;99.90
24522;DHT22;12680;57.804;12.190;2023-06-22T03:58:22;18.20;99.90
24522;DHT22;12680;57.804;12.190;2023-06-22T04:00:51;18.20;99.90
24522;DHT22;12680;57.804;12.190;2023-06-22T04:03:19;16.80;99.90
24522;DHT22;12680;57.804;12.190;2023-06-22T04:05:46;18.90;99.90
24522;DHT22;12680;57.804;12.190;2023-06-22T04:08:15;17.50;99.90
24522;DHT22;12680;57.804;12.190;2023-06-22T04:10:42;18.20;99.90
24522;DHT22;12680;57.804;12.190;2023-06-22T04:13:08;17.30;99.90
24522;DHT22;12680;57.804;12.190;2023-06-22T04:15:35;16.90;99.90
24522;DHT22;12680;57.804;12.190;2023-06-22T04:18:02;17.20;99.90
24522;DHT22;12680;57.804;12.190;2023-06-22T04:20:31;16.90;99.90
24522;DHT22;12680;57.804;12.190;2023-06-22T04:22:58;17.00;99.90
24522;DHT22;12680;57.804;12.190;2023-06-22T04:25:25;19.40;99.90
24522;DHT22;12680;57.804;12.190;2023-06-22T04:27:52;17.00;99.90
24522;DHT22;12680;57.804;12.190;2023-06-22T04:30:19;17.10;99.90
24522;DHT22;12680;57.804;12.190;2023-06-22T04:32:46;17.00;99.90
24522;DHT22;12680;57.804;12.190;2023-06-22T04:35:25;17.10;99.90
24522;DHT22;12680;57.804;12.190;2023-06-22T04:37:53;18.00;99.90
24522;DHT22;12680;57.804;12.190;2023-06-22T04:40:24;17.00;99.90
24522;DHT22;12680;57.804;12.190;2023-06-22T04:42:53;18.10;99.90
24522;DHT22;12680;57.804;12.190;2023-06-22T04:45:20;17.10;99.90
24522;DHT22;12680;57.804;12.190;2023-06-22T04:47:48;18.70;99.90
24522;DHT22;12680;57.804;12.190;2023-06-22T04:50:15;17.10;99.90
24522;DHT22;12680;57.804;12.190;2023-06-22T04:52:43;17.10;99.90
24522;DHT22;12680;57.804;12.190;2023-06-22T04:55:10;17.10;99.90
24522;DHT22;12680;57.804;12.190;2023-06-22T04:57:40;17.10;99.90
24522;DHT22;12680;57.804;12.190;2023-06-22T05:00:07;19.70;99.90
24522;DHT22;12680;57.804;12.190;2023-06-22T05:02:44;17.20;99.90
24522;DHT22;12680;57.804;12.190;2023-06-22T05:05:13;17.30;99.90
24522;DHT22;12680;57.804;12.190;2023-06-22T05:07:45;17.30;99.90
24522;DHT22;12680;57.804;12.190;2023-06-22T05:10:14;17.40;99.90
24522;DHT22;12680;57.804;12.190;2023-06-22T05:12:41;17.30;99.90
24522;DHT22;12680;57.804;12.190;2023-06-22T05:15:08;17.40;99.90
24522;DHT22;12680;57.804;12.190;2023-06-22T05:17:36;17.40;99.90
24522;DHT22;12680;57.804;12.190;2023-06-22T05:20:04;17.40;99.90
24522;DHT22;12680;57.804;12.190;2023-06-22T05:22:32;17.40;99.90
24522;DHT22;12680;57.804;12.190;2023-06-22T05:24:59;18.70;99.90
24522;DHT22;12680;57.804;12.190;2023-06-22T05:27:26;18.40;99.90
24522;DHT22;12680;57.804;12.190;2023-06-22T05:29:53;17.90;99.90
24522;DHT22;12680;57.804;12.190;2023-06-22T05:32:20;17.60;99.90
24522;DHT22;12680;57.804;12.190;2023-06-22T05:34:47;17.70;99.90
24522;DHT22;12680;57.804;12.190;2023-06-22T05:37:14;17.70;99.90
24522;DHT22;12680;57.804;12.190;2023-06-22T05:39:41;17.80;99.90
24522;DHT22;12680;57.804;12.190;2023-06-22T05:42:08;17.80;99.90
24522;DHT22;12680;57.804;12.190;2023-06-22T05:44:36;17.90;99.90
24522;DHT22;12680;57.804;12.190;2023-06-22T05:47:04;17.90;99.90
24522;DHT22;12680;57.804;12.190;2023-06-22T05:49:31;17.90;99.90
24522;DHT22;12680;57.804;12.190;2023-06-22T05:52:00;19.20;99.90
24522;DHT22;12680;57.804;12.190;2023-06-22T05:54:30;18.00;99.90
24522;DHT22;12680;57.804;12.190;2023-06-22T05:56:57;18.00;99.90
24522;DHT22;12680;57.804;12.190;2023-06-22T05:59:24;19.40;99.90
24522;DHT22;12680;57.804;12.190;2023-06-22T06:01:53;18.00;99.90
24522;DHT22;12680;57.804;12.190;2023-06-22T06:04:20;18.10;99.90
24522;DHT22;12680;57.804;12.190;2023-06-22T06:06:47;18.10;99.90
24522;DHT22;12680;57.804;12.190;2023-06-22T06:09:14;18.20;99.90
24522;DHT22;12680;57.804;12.190;2023-06-22T06:11:41;18.40;99.90
24522;DHT22;12680;57.804;12.190;2023-06-22T06:14:08;18.30;99.90
24522;DHT22;12680;57.804;12.190;2023-06-22T06:16:35;19.60;99.90
24522;DHT22;12680;57.804;12.190;2023-06-22T06:19:02;18.50;99.90
24522;DHT22;12680;57.804;12.190;2023-06-22T07:47:48;20.30;99.20
24522;DHT22;12680;57.804;12.190;2023-06-22T07:50:15;20.20;99.30
24522;DHT22;12680;57.804;12.190;2023-06-22T07:52:42;20.30;99.50
24522;DHT22;12680;57.804;12.190;2023-06-22T07:55:09;20.60;99.20
24522;DHT22;12680;57.804;12.190;2023-06-22T07:57:36;20.60;99.20
24522;DHT22;12680;57.804;12.190;2023-06-22T08:00:05;20.60;98.70
24522;DHT22;12680;57.804;12.190;2023-06-22T08:02:42;20.60;98.70
24522;DHT22;12680;57.804;12.190;2023-06-22T08:05:10;20.70;98.90
24522;DHT22;12680;57.804;12.190;2023-06-22T08:07:48;20.70;98.40
24522;DHT22;12680;57.804;12.190;2023-06-22T08:10:15;21.50;98.40
24522;DHT22;12680;57.804;12.190;2023-06-22T08:12:42;20.70;98.20
24522;DHT22;12680;57.804;12.190;2023-06-22T08:15:09;20.70;98.30
24522;DHT22;12680;57.804;12.190;2023-06-22T08:17:39;20.60;98.20
24522;DHT22;12680;57.804;12.190;2023-06-22T08:20:07;20.60;98.00
24522;DHT22;12680;57.804;12.190;2023-06-22T08:22:41;20.60;98.30
24522;DHT22;12680;57.804;12.190;2023-06-22T08:25:09;20.90;98.60
24522;DHT22;12680;57.804;12.190;2023-06-22T08:27:36;21.10;98.00
24522;DHT22;12680;57.804;12.190;2023-06-22T08:30:03;21.20;97.50
24522;DHT22;12680;57.804;12.190;2023-06-22T08:32:30;21.40;97.50
24522;DHT22;12680;57.804;12.190;2023-06-22T08:34:59;21.50;97.30
24522;DHT22;12680;57.804;12.190;2023-06-22T08:37:26;21.50;97.30
24522;DHT22;12680;57.804;12.190;2023-06-22T08:39:58;21.50;96.90
24522;DHT22;12680;57.804;12.190;2023-06-22T08:42:25;21.40;96.80
24522;DHT22;12680;57.804;12.190;2023-06-22T08:44:52;21.50;97.60
24522;DHT22;12680;57.804;12.190;2023-06-22T08:47:20;21.70;97.00
24522;DHT22;12680;57.804;12.190;2023-06-22T08:49:48;21.70;97.10
24522;DHT22;12680;57.804;12.190;2023-06-22T08:52:15;21.80;96.70
24522;DHT22;12680;57.804;12.190;2023-06-22T08:54:42;22.00;96.20
24522;DHT22;12680;57.804;12.190;2023-06-22T08:57:08;22.30;96.20
24522;DHT22;12680;57.804;12.190;2023-06-22T08:59:35;22.10;95.80
24522;DHT22;12680;57.804;12.190;2023-06-22T09:02:02;21.90;95.40
24522;DHT22;12680;57.804;12.190;2023-06-22T09:04:29;21.80;95.20
24522;DHT22;12680;57.804;12.190;2023-06-22T09:06:56;21.70;95.60
24522;DHT22;12680;57.804;12.190;2023-06-22T09:09:23;21.80;95.60
24522;DHT22;12680;57.804;12.190;2023-06-22T09:11:49;22.20;95.50
24522;DHT22;12680;57.804;12.190;2023-06-22T09:14:16;21.90;95.10
24522;DHT22;12680;57.804;12.190;2023-06-22T09:16:43;21.80;94.80
24522;DHT22;12680;57.804;12.190;2023-06-22T09:19:10;22.50;94.90
24522;DHT22;12680;57.804;12.190;2023-06-22T09:21:37;22.10;94.80
24522;DHT22;12680;57.804;12.190;2023-06-22T09:24:04;21.90;94.60
24522;DHT22;12680;57.804;12.190;2023-06-22T09:26:31;21.90;94.50
24522;DHT22;12680;57.804;12.190;2023-06-22T09:28:58;22.00;94.40
24522;DHT22;12680;57.804;12.190;2023-06-22T09:31:25;22.00;94.20
24522;DHT22;12680;57.804;12.190;2023-06-22T09:33:53;22.00;94.30
24522;DHT22;12680;57.804;12.190;2023-06-22T09:36:23;23.10;94.90
24522;DHT22;12680;57.804;12.190;2023-06-22T09:38:50;22.10;94.30
24522;DHT22;12680;57.804;12.190;2023-06-22T09:41:25;22.10;94.10
24522;DHT22;12680;57.804;12.190;2023-06-22T09:43:52;22.10;94.20
24522;DHT22;12680;57.804;12.190;2023-06-22T09:46:22;22.00;94.10
24522;DHT22;12680;57.804;12.190;2023-06-22T09:48:51;21.80;94.10
24522;DHT22;12680;57.804;12.190;2023-06-22T09:51:18;21.90;94.40
24522;DHT22;12680;57.804;12.190;2023-06-22T09:53:48;22.00;94.60
24522;DHT22;12680;57.804;12.190;2023-06-22T09:56:14;22.10;94.50
24522;DHT22;12680;57.804;12.190;2023-06-22T09:58:42;23.60;94.50
24522;DHT22;12680;57.804;12.190;2023-06-22T10:01:09;22.20;93.90
24522;DHT22;12680;57.804;12.190;2023-06-22T10:03:37;22.20;93.70
24522;DHT22;12680;57.804;12.190;2023-06-22T10:40:33;23.60;92.50
24522;DHT22;12680;57.804;12.190;2023-06-22T10:42:59;23.80;92.70
24522;DHT22;12680;57.804;12.190;2023-06-22T10:45:26;23.90;92.60
24522;DHT22;12680;57.804;12.190;2023-06-22T10:47:55;23.80;92.10
24522;DHT22;12680;57.804;12.190;2023-06-22T10:50:22;23.60;92.20
24522;DHT22;12680;57.804;12.190;2023-06-22T10:52:51;23.60;92.20
24522;DHT22;12680;57.804;12.190;2023-06-22T10:55:18;23.40;92.10
24522;DHT22;12680;57.804;12.190;2023-06-22T10:57:45;23.30;92.10
24522;DHT22;12680;57.804;12.190;2023-06-22T11:00:15;23.20;92.30
24522;DHT22;12680;57.804;12.190;2023-06-22T11:02:43;23.00;92.40
24522;DHT22;12680;57.804;12.190;2023-06-22T11:05:10;22.90;92.30
24522;DHT22;12680;57.804;12.190;2023-06-22T11:07:41;23.00;92.40
24522;DHT22;12680;57.804;12.190;2023-06-22T11:10:13;23.60;92.60
24522;DHT22;12680;57.804;12.190;2023-06-22T11:12:40;23.10;92.40
24522;DHT22;12680;57.804;12.190;2023-06-22T11:15:07;23.20;92.50
24522;DHT22;12680;57.804;12.190;2023-06-22T11:17:35;23.10;92.20
24522;DHT22;12680;57.804;12.190;2023-06-22T11:20:02;23.10;92.10
24522;DHT22;12680;57.804;12.190;2023-06-22T11:22:32;23.00;92.30
24522;DHT22;12680;57.804;12.190;2023-06-22T11:25:00;23.00;92.30
24522;DHT22;12680;57.804;12.190;2023-06-22T11:27:27;22.90;92.20
24522;DHT22;12680;57.804;12.190;2023-06-22T11:29:54;22.90;92.40
24522;DHT22;12680;57.804;12.190;2023-06-22T11:32:21;22.80;92.80
24522;DHT22;12680;57.804;12.190;2023-06-22T11:34:48;23.00;92.90
24522;DHT22;12680;57.804;12.190;2023-06-22T11:37:15;23.20;92.70
24522;DHT22;12680;57.804;12.190;2023-06-22T11:39:42;23.20;92.60
24522;DHT22;12680;57.804;12.190;2023-06-22T11:42:13;23.20;92.40
24522;DHT22;12680;57.804;12.190;2023-06-22T11:44:40;23.10;92.30
24522;DHT22;12680;57.804;12.190;2023-06-22T11:47:07;24.10;92.50
24522;DHT22;12680;57.804;12.190;2023-06-22T11:49:34;23.00;92.40
24522;DHT22;12680;57.804;12.190;2023-06-22T11:52:00;23.00;92.60
24522;DHT22;12680;57.804;12.190;2023-06-22T11:54:27;24.10;92.80
24522;DHT22;12680;57.804;12.190;2023-06-22T11:56:54;23.10;92.30
24522;DHT22;12680;57.804;12.190;2023-06-22T11:59:21;23.30;92.80
24522;DHT22;12680;57.804;12.190;2023-06-22T12:01:48;23.80;92.50
24522;DHT22;12680;57.804;12.190;2023-06-22T12:04:17;23.90;91.90
24522;DHT22;12680;57.804;12.190;2023-06-22T12:06:44;23.80;91.40
24522;DHT22;12680;57.804;12.190;2023-06-22T12:09:12;23.60;91.50
24522;DHT22;12680;57.804;12.190;2023-06-22T12:11:40;23.60;91.30
24522;DHT22;12680;57.804;12.190;2023-06-22T12:14:07;23.50;91.20
24522;DHT22;12680;57.804;12.190;2023-06-22T12:16:34;23.60;91.30
24522;DHT22;12680;57.804;12.190;2023-06-22T12:19:01;23.60;91.00
24522;DHT22;12680;57.804;12.190;2023-06-22T12:21:28;23.50;91.10
24522;DHT22;12680;57.804;12.190;2023-06-22T12:23:55;23.70;91.10
24522;DHT22;12680;57.804;12.190;2023-06-22T12:26:22;24.30;91.10
24522;DHT22;12680;57.804;12.190;2023-06-22T12:28:49;23.40;91.00
24522;DHT22;12680;57.804;12.190;2023-06-22T12:31:15;24.40;91.10
24522;DHT22;12680;57.804;12.190;2023-06-22T12:33:42;23.20;91.10
24522;DHT22;12680;57.804;12.190;2023-06-22T12:36:09;23.20;91.20
24522;DHT22;12680;57.804;12.190;2023-06-22T12:38:36;23.30;91.00
24522;DHT22;12680;57.804;12.190;2023-06-22T12:41:03;24.00;91.30
24522;DHT22;12680;57.804;12.190;2023-06-22T12:43:29;23.30;91.20
24522;DHT22;12680;57.804;12.190;2023-06-22T12:45:56;23.30;90.90
24522;DHT22;12680;57.804;12.190;2023-06-22T12:48:24;24.50;91.20
24522;DHT22;12680;57.804;12.190;2023-06-22T12:50:51;23.20;90.70
24522;DHT22;12680;57.804;12.190;2023-06-22T12:53:20;23.10;90.90
24522;DHT22;12680;57.804;12.190;2023-06-22T12:55:46;23.10;90.90
24522;DHT22;12680;57.804;12.190;2023-06-22T12:58:13;23.20;91.20
24522;DHT22;12680;57.804;12.190;2023-06-22T13:00:40;23.30;90.70
24522;DHT22;12680;57.804;12.190;2023-06-22T13:03:07;23.30;90.70
24522;DHT22;12680;57.804;12.190;2023-06-22T13:05:34;23.10;90.90
24522;DHT22;12680;57.804;12.190;2023-06-22T13:08:02;23.00;91.10
24522;DHT22;12680;57.804;12.190;2023-06-22T13:10:30;22.90;91.30
24522;DHT22;12680;57.804;12.190;2023-06-22T13:12:57;22.90;92.00
24522;DHT22;12680;57.804;12.190;2023-06-22T13:15:28;23.10;91.60
24522;DHT22;12680;57.804;12.190;2023-06-22T13:17:56;23.00;91.40
24522;DHT22;12680;57.804;12.190;2023-06-22T13:20:22;23.10;91.60
24522;DHT22;12680;57.804;12.190;2023-06-22T13:22:49;23.10;91.60
24522;DHT22;12680;57.804;12.190;2023-06-22T13:25:16;23.20;91.70
24522;DHT22;12680;57.804;12.190;2023-06-22T13:27:45;23.60;91.50
24522;DHT22;12680;57.804;12.190;2023-06-22T13:30:13;23.00;91.30
24522;DHT22;12680;57.804;12.190;2023-06-22T13:32:41;22.90;91.30
24522;DHT22;12680;57.804;12.190;2023-06-22T13:35:10;22.90;91.30
24522;DHT22;12680;57.804;12.190;2023-06-22T13:37:37;24.20;91.80
24522;DHT22;12680;57.804;12.190;2023-06-22T13:40:07;24.10;92.00
24522;DHT22;12680;57.804;12.190;2023-06-22T13:42:34;23.60;91.20
24522;DHT22;12680;57.804;12.190;2023-06-22T13:45:02;23.80;90.90
24522;DHT22;12680;57.804;12.190;2023-06-22T13:47:29;24.00;91.00
24522;DHT22;12680;57.804;12.190;2023-06-22T13:49:57;24.30;90.90
24522;DHT22;12680;57.804;12.190;2023-06-22T13:52:24;24.60;90.30
24522;DHT22;12680;57.804;12.190;2023-06-22T13:54:51;24.60;88.90
24522;DHT22;12680;57.804;12.190;2023-06-22T13:57:18;25.00;89.50
24522;DHT22;12680;57.804;12.190;2023-06-22T13:59:45;24.60;89.30
24522;DHT22;12680;57.804;12.190;2023-06-22T14:02:12;25.00;89.30
24522;DHT22;12680;57.804;12.190;2023-06-22T14:04:39;25.20;89.00
24522;DHT22;12680;57.804;12.190;2023-06-22T14:07:06;24.90;88.10
24522;DHT22;12680;57.804;12.190;2023-06-22T14:09:32;24.70;87.40
24522;DHT22;12680;57.804;12.190;2023-06-22T14:12:03;24.40;87.60
24522;DHT22;12680;57.804;12.190;2023-06-22T14:14:34;24.10;87.70
24522;DHT22;12680;57.804;12.190;2023-06-22T14:17:01;23.90;88.20
24522;DHT22;12680;57.804;12.190;2023-06-22T14:19:28;23.70;88.90
24522;DHT22;12680;57.804;12.190;2023-06-22T14:21:55;23.50;88.20
24522;DHT22;12680;57.804;12.190;2023-06-22T14:24:23;23.30;88.60
24522;DHT22;12680;57.804;12.190;2023-06-22T14:26:54;24.10;89.40
24522;DHT22;12680;57.804;12.190;2023-06-22T14:29:22;23.60;89.40
24522;DHT22;12680;57.804;12.190;2023-06-22T14:31:49;23.40;89.80
24522;DHT22;12680;57.804;12.190;2023-06-22T14:34:16;23.60;88.80
24522;DHT22;12680;57.804;12.190;2023-06-22T14:36:43;23.50;88.40
24522;DHT22;12680;57.804;12.190;2023-06-22T14:39:10;23.30;88.20
24522;DHT22;12680;57.804;12.190;2023-06-22T14:41:36;23.50;88.60
24522;DHT22;12680;57.804;12.190;2023-06-22T14:44:03;23.50;87.00
24522;DHT22;12680;57.804;12.190;2023-06-22T14:46:30;23.40;86.70
24522;DHT22;12680;57.804;12.190;2023-06-22T14:48:57;23.20;86.10
24522;DHT22;12680;57.804;12.190;2023-06-22T14:51:24;23.10;86.80
24522;DHT22;12680;57.804;12.190;2023-06-22T14:53:51;23.10;87.10
24522;DHT22;12680;57.804;12.190;2023-06-22T14:56:17;23.10;87.10
24522;DHT22;12680;57.804;12.190;2023-06-22T14:58:45;23.30;86.30
24522;DHT22;12680;57.804;12.190;2023-06-22T15:01:14;23.20;85.90
24522;DHT22;12680;57.804;12.190;2023-06-22T15:03:41;23.20;85.70
24522;DHT22;12680;57.804;12.190;2023-06-22T15:06:09;23.20;84.80
24522;DHT22;12680;57.804;12.190;2023-06-22T15:08:40;23.10;84.70
24522;DHT22;12680;57.804;12.190;2023-06-22T15:11:08;23.10;84.40
24522;DHT22;12680;57.804;12.190;2023-06-22T15:13:39;23.10;83.50
24522;DHT22;12680;57.804;12.190;2023-06-22T15:16:06;23.10;83.20
24522;DHT22;12680;57.804;12.190;2023-06-22T15:18:33;23.20;82.60
24522;DHT22;12680;57.804;12.190;2023-06-22T15:21:02;23.30;82.10
24522;DHT22;12680;57.804;12.190;2023-06-22T15:23:30;23.30;81.00
24522;DHT22;12680;57.804;12.190;2023-06-22T15:25:58;23.20;80.90
24522;DHT22;12680;57.804;12.190;2023-06-22T15:28:25;23.30;80.90
24522;DHT22;12680;57.804;12.190;2023-06-22T15:30:52;23.20;81.20
24522;DHT22;12680;57.804;12.190;2023-06-22T15:33:19;23.20;81.20
24522;DHT22;12680;57.804;12.190;2023-06-22T15:35:46;23.30;81.40
24522;DHT22;12680;57.804;12.190;2023-06-22T15:38:13;23.20;81.50
24522;DHT22;12680;57.804;12.190;2023-06-22T15:40:40;23.20;81.70
24522;DHT22;12680;57.804;12.190;2023-06-22T15:43:11;23.20;81.70
24522;DHT22;12680;57.804;12.190;2023-06-22T15:45:42;23.00;81.50
24522;DHT22;12680;57.804;12.190;2023-06-22T15:48:08;22.90;82.30
24522;DHT22;12680;57.804;12.190;2023-06-22T15:50:35;22.80;82.80
24522;DHT22;12680;57.804;12.190;2023-06-22T15:53:02;22.70;83.00
24522;DHT22;12680;57.804;12.190;2023-06-22T15:55:29;22.70;83.80
24522;DHT22;12680;57.804;12.190;2023-06-22T15:57:57;22.70;84.10
24522;DHT22;12680;57.804;12.190;2023-06-22T16:00:24;23.70;84.30
24522;DHT22;12680;57.804;12.190;2023-06-22T16:02:52;22.80;83.30
24522;DHT22;12680;57.804;12.190;2023-06-22T16:05:19;22.80;83.30
24522;DHT22;12680;57.804;12.190;2023-06-22T16:07:46;22.90;83.40
24522;DHT22;12680;57.804;12.190;2023-06-22T16:10:12;23.00;83.10
24522;DHT22;12680;57.804;12.190;2023-06-22T16:12:42;23.00;82.40
24522;DHT22;12680;57.804;12.190;2023-06-22T16:15:11;22.90;81.90
24522;DHT22;12680;57.804;12.190;2023-06-22T16:17:38;22.80;83.20
24522;DHT22;12680;57.804;12.190;2023-06-22T16:20:06;22.80;81.90
24522;DHT22;12680;57.804;12.190;2023-06-22T16:22:34;22.70;81.20
24522;DHT22;12680;57.804;12.190;2023-06-22T16:25:01;22.50;81.50
24522;DHT22;12680;57.804;12.190;2023-06-22T16:27:29;22.30;81.40
24522;DHT22;12680;57.804;12.190;2023-06-22T16:29:57;22.30;82.10
24522;DHT22;12680;57.804;12.190;2023-06-22T16:32:24;22.40;82.00
24522;DHT22;12680;57.804;12.190;2023-06-22T16:34:51;22.70;82.40
24522;DHT22;12680;57.804;12.190;2023-06-22T16:37:18;23.00;81.60
24522;DHT22;12680;57.804;12.190;2023-06-22T16:39:45;23.40;82.40
24522;DHT22;12680;57.804;12.190;2023-06-22T16:42:11;23.40;81.70
24522;DHT22;12680;57.804;12.190;2023-06-22T16:44:38;23.60;79.60
24522;DHT22;12680;57.804;12.190;2023-06-22T16:47:05;23.80;79.90
24522;DHT22;12680;57.804;12.190;2023-06-22T16:49:32;23.60;78.90
24522;DHT22;12680;57.804;12.190;2023-06-22T16:51:59;23.50;78.20
24522;DHT22;12680;57.804;12.190;2023-06-22T16:54:30;23.40;78.40
24522;DHT22;12680;57.804;12.190;2023-06-22T16:57:00;23.30;77.80
24522;DHT22;12680;57.804;12.190;2023-06-22T16:59:28;23.30;77.70
24522;DHT22;12680;57.804;12.190;2023-06-22T17:01:56;23.30;78.00
24522;DHT22;12680;57.804;12.190;2023-06-22T17:04:25;23.50;78.60
24522;DHT22;12680;57.804;12.190;2023-06-22T17:06:58;23.80;78.40
24522;DHT22;12680;57.804;12.190;2023-06-22T17:09:26;24.00;76.70
24522;DHT22;12680;57.804;12.190;2023-06-22T17:11:54;24.10;75.80
24522;DHT22;12680;57.804;12.190;2023-06-22T17:14:21;24.40;75.60
24522;DHT22;12680;57.804;12.190;2023-06-22T17:16:49;24.70;75.10
24522;DHT22;12680;57.804;12.190;2023-06-22T17:19:17;25.00;74.40
24522;DHT22;12680;57.804;12.190;2023-06-22T17:21:46;25.40;72.70
24522;DHT22;12680;57.804;12.190;2023-06-22T17:24:17;25.60;72.20
24522;DHT22;12680;57.804;12.190;2023-06-22T17:26:48;25.60;71.50
24522;DHT22;12680;57.804;12.190;2023-06-22T17:29:15;25.80;71.40